NCAR-RAP Real-Time Weather Data

Output produced by METARs form (21 May 2019  11:35 UTC)
found at http://weather.rap.ucar.edu/surface/
 
RJCB 211100Z 16021KT 8000 -SHRA FEW004 BKN006 14/13 Q1001
RJCB 211000Z 16021G31KT 9999 -SHRA FEW004 BKN006 14/13 Q1001
RJCB 210900Z 15018G28KT 9999 -SHRA FEW004 BKN006 14/13 Q1001
RJCB 210800Z 15021KT 9999 -SHRA FEW004 BKN006 14/14 Q1001
RJCB 210700Z 16020KT 9999 -SHRA FEW004 BKN006 15/14 Q1002
RJCB 210600Z 15020G30KT 9999 -SHRA FEW004 BKN006 14/13 Q1002
RJCB 210500Z 15023KT 9999 -SHRA FEW005 BKN007 14/14 Q1002
RJCB 210400Z 15022G32KT 9999 -SHRA FEW005 BKN007 14/13 Q1002
RJCB 210300Z 15026KT 6000 -SHRA FEW005 BKN008 BKN040 14/13 Q1003
RJCB 210235Z 16025KT 1600 BLDU -SHRA FEW009 BKN030 15/13 Q1003 RMK 2ST009 6CU030 A2964
RJCB 210200Z 16027G38KT 1500 R35/2000N BLDU -SHRA FEW009 BKN030 15/12 Q1004
RJCB 210100Z 16027G38KT 1500 R35/0900VP2000D BLDU -SHRA FEW003 SCT009 BKN030 16/12 Q1004
RJCB 210037Z 16025KT 2300 R35/2000N BLDU FEW003 SCT009 BKN030 16/13 Q1004 RMK 1ST003 4ST009 6CU030 A2967
RJCB 210000Z 15025G35KT 3100 BLDU FEW003 SCT009 BKN120 15/12 Q1005
RJCB 202339Z 15022G32KT 4900 BLDU FEW003 SCT009 BKN120 16/13 Q1005 RMK 1ST003 3ST009 6AC120 A2969
RJCB 202300Z 14021KT 6000 -SHRA FEW003 SCT006 BKN050 15/13 Q1006
RJCB 202240Z 14018KT 5000 -SHRA BR FEW003 BKN006 14/13 Q1006 RMK 1ST003 6ST006 A2972
RJCB 201100Z 15016KT 9999 FEW015 SCT/// 12/10 Q1013
RJCB 201000Z 15016KT 9999 FEW015 BKN/// 13/11 Q1013
RJCB 200900Z 14016KT 9999 FEW015 BKN/// 15/11 Q1013
RJCB 200800Z 15019KT 9999 FEW015 BKN/// 17/11 Q1013
RJCB 200700Z 15019KT 6000 FEW015 BKN/// 18/12 Q1013
RJCB 200600Z 15023KT 5000 BLDU FEW040 BKN/// 20/12 Q1013
RJCB 200500Z 16022KT 5000 BLDU FEW040 BKN/// 21/11 Q1013
RJCB 200400Z 15020KT 5000 BLDU FEW040 BKN/// 21/11 Q1014
RJCB 200300Z 15021KT 5000 BLDU FEW040 BKN/// 22/10 Q1015
RJCB 200200Z 16018KT 130V210 5000 BLDU FEW040 BKN/// 23/11 Q1015
RJCB 200100Z VRB02KT 9999 FEW020 BKN/// 17/12 Q1016
RJCB 200000Z 35005KT 310V040 9999 FEW006 13/10 Q1017
RJCB 192341Z 35005KT 300V040 8000 FEW003 SCT006 13/12 Q1017 RMK 1ST003 4ST006 A3004
RJCB 192324Z 33005KT 290V030 5000 BR SCT003 BKN006 12/12 Q1017 RMK 4ST003 7ST006 A3005
RJCB 192300Z 33005KT 3200 BR FEW002 BKN003 10/10 Q1017
RJCB 192247Z 34005KT 1500 R35/1100VP2000U BR BKN002 BKN003 10/10 Q1017 RMK 5ST002 7ST003 A3005
RJCB 192243Z 34005KT 1100 R35/1200VP2000N BR BKN002 BKN003 10/10 Q1017 RMK 5ST002 7ST003 A3005
RJCB 192240Z 34005KT 300V360 1000 R35/1000VP2000U BR VV002 10/10 Q1017 RMK A3005
RJCB 191100Z 20006KT 170V290 9999 FEW040 16/09 Q1019
RJCB 191000Z 16010KT 9999 FEW040 17/09 Q1018
RJCB 190900Z 15008KT 9999 FEW040 SCT/// 19/10 Q1018
RJCB 190800Z 13009KT 9999 FEW050 SCT/// 21/10 Q1018
RJCB 190700Z 14010KT 9999 FEW050 BKN/// 21/10 Q1018
RJCB 190600Z 11009KT 080V150 9999 FEW050 BKN/// 22/11 Q1018
RJCB 190500Z 14011KT 100V170 9999 FEW050 SCT/// 23/10 Q1018
RJCB 190400Z 10010KT 9999 FEW050 BKN/// 24/11 Q1019
RJCB 190300Z 08004KT 010V140 9999 FEW050 BKN/// 23/12 Q1019
RJCB 190200Z 07005KT 340V130 9999 FEW050 SCT/// 21/13 Q1020
RJCB 190100Z 09005KT 020V160 9999 FEW040 SCT/// 19/12 Q1021
RJCB 190000Z 07003KT 330V140 9999 FEW010 15/12 Q1021